sensor_id;sensor_type;location;lat;lon;timestamp;P1;durP1;ratioP1;P2;durP2;ratioP2
40555;SDS011;26250;45.422;11.100;2024-01-30T00:00:26;77.20;;;58.17;;
40555;SDS011;26250;45.422;11.100;2024-01-30T00:02:53;98.13;;;59.30;;
40555;SDS011;26250;45.422;11.100;2024-01-30T00:05:20;93.10;;;60.17;;
40555;SDS011;26250;45.422;11.100;2024-01-30T00:07:47;94.93;;;61.67;;
40555;SDS011;26250;45.422;11.100;2024-01-30T00:10:14;98.82;;;60.08;;
40555;SDS011;26250;45.422;11.100;2024-01-30T00:12:41;89.50;;;62.67;;
40555;SDS011;26250;45.422;11.100;2024-01-30T00:15:08;93.75;;;64.28;;
40555;SDS011;26250;45.422;11.100;2024-01-30T00:17:36;135.05;;;73.28;;
40555;SDS011;26250;45.422;11.100;2024-01-30T00:20:04;137.10;;;68.47;;
40555;SDS011;26250;45.422;11.100;2024-01-30T00:22:32;97.50;;;63.45;;
40555;SDS011;26250;45.422;11.100;2024-01-30T00:24:59;102.07;;;60.20;;
40555;SDS011;26250;45.422;11.100;2024-01-30T00:27:26;96.57;;;58.85;;
40555;SDS011;26250;45.422;11.100;2024-01-30T00:29:54;124.45;;;62.35;;
40555;SDS011;26250;45.422;11.100;2024-01-30T00:32:20;179.95;;;65.95;;
40555;SDS011;26250;45.422;11.100;2024-01-30T00:34:49;213.52;;;68.50;;
40555;SDS011;26250;45.422;11.100;2024-01-30T00:37:16;171.43;;;68.45;;
40555;SDS011;26250;45.422;11.100;2024-01-30T00:39:43;211.50;;;72.88;;
40555;SDS011;26250;45.422;11.100;2024-01-30T00:42:10;165.18;;;69.35;;
40555;SDS011;26250;45.422;11.100;2024-01-30T00:44:37;158.23;;;64.57;;
40555;SDS011;26250;45.422;11.100;2024-01-30T00:47:05;163.82;;;68.15;;
40555;SDS011;26250;45.422;11.100;2024-01-30T00:49:32;111.15;;;63.63;;
40555;SDS011;26250;45.422;11.100;2024-01-30T00:52:00;120.07;;;61.38;;
40555;SDS011;26250;45.422;11.100;2024-01-30T00:54:27;94.60;;;60.42;;
40555;SDS011;26250;45.422;11.100;2024-01-30T00:56:54;95.13;;;61.50;;
40555;SDS011;26250;45.422;11.100;2024-01-30T00:59:21;74.20;;;56.28;;
40555;SDS011;26250;45.422;11.100;2024-01-30T01:01:48;84.97;;;58.85;;
40555;SDS011;26250;45.422;11.100;2024-01-30T01:04:15;84.90;;;54.40;;
40555;SDS011;26250;45.422;11.100;2024-01-30T01:06:43;97.32;;;57.33;;
40555;SDS011;26250;45.422;11.100;2024-01-30T01:09:11;114.85;;;54.97;;
40555;SDS011;26250;45.422;11.100;2024-01-30T01:11:38;89.25;;;54.70;;
40555;SDS011;26250;45.422;11.100;2024-01-30T01:14:06;72.10;;;51.83;;
40555;SDS011;26250;45.422;11.100;2024-01-30T01:16:33;82.55;;;54.85;;
40555;SDS011;26250;45.422;11.100;2024-01-30T01:19:00;88.93;;;55.80;;
40555;SDS011;26250;45.422;11.100;2024-01-30T01:21:28;82.18;;;58.20;;
40555;SDS011;26250;45.422;11.100;2024-01-30T01:23:55;93.95;;;53.08;;
40555;SDS011;26250;45.422;11.100;2024-01-30T01:26:22;79.13;;;52.53;;
40555;SDS011;26250;45.422;11.100;2024-01-30T01:28:49;88.63;;;54.30;;
40555;SDS011;26250;45.422;11.100;2024-01-30T01:31:16;100.25;;;59.67;;
40555;SDS011;26250;45.422;11.100;2024-01-30T01:33:44;118.38;;;59.30;;
40555;SDS011;26250;45.422;11.100;2024-01-30T01:36:13;111.78;;;56.78;;
40555;SDS011;26250;45.422;11.100;2024-01-30T01:38:40;125.72;;;59.30;;
40555;SDS011;26250;45.422;11.100;2024-01-30T01:41:07;95.95;;;59.08;;
40555;SDS011;26250;45.422;11.100;2024-01-30T01:43:34;89.25;;;54.88;;
40555;SDS011;26250;45.422;11.100;2024-01-30T01:46:01;69.30;;;53.65;;
40555;SDS011;26250;45.422;11.100;2024-01-30T01:48:28;84.00;;;55.58;;
40555;SDS011;26250;45.422;11.100;2024-01-30T01:50:56;65.25;;;53.20;;
40555;SDS011;26250;45.422;11.100;2024-01-30T01:53:24;67.70;;;51.95;;
40555;SDS011;26250;45.422;11.100;2024-01-30T01:55:51;58.35;;;49.83;;
40555;SDS011;26250;45.422;11.100;2024-01-30T01:58:19;55.95;;;48.10;;
40555;SDS011;26250;45.422;11.100;2024-01-30T02:00:49;54.60;;;47.00;;
40555;SDS011;26250;45.422;11.100;2024-01-30T02:03:17;58.63;;;48.88;;
40555;SDS011;26250;45.422;11.100;2024-01-30T02:05:48;59.92;;;46.92;;
40555;SDS011;26250;45.422;11.100;2024-01-30T02:08:17;55.05;;;46.60;;
40555;SDS011;26250;45.422;11.100;2024-01-30T02:10:44;56.13;;;47.90;;
40555;SDS011;26250;45.422;11.100;2024-01-30T02:13:11;58.70;;;47.72;;
40555;SDS011;26250;45.422;11.100;2024-01-30T02:15:39;57.83;;;50.47;;
40555;SDS011;26250;45.422;11.100;2024-01-30T02:18:06;59.28;;;49.40;;
40555;SDS011;26250;45.422;11.100;2024-01-30T02:20:34;56.13;;;47.17;;
40555;SDS011;26250;45.422;11.100;2024-01-30T02:23:01;57.00;;;46.80;;
40555;SDS011;26250;45.422;11.100;2024-01-30T02:25:39;54.85;;;46.78;;
40555;SDS011;26250;45.422;11.100;2024-01-30T02:28:13;61.10;;;49.38;;
40555;SDS011;26250;45.422;11.100;2024-01-30T02:30:40;63.42;;;49.38;;
40555;SDS011;26250;45.422;11.100;2024-01-30T02:33:09;58.58;;;48.95;;
40555;SDS011;26250;45.422;11.100;2024-01-30T02:35:36;72.70;;;54.65;;
40555;SDS011;26250;45.422;11.100;2024-01-30T02:38:03;69.57;;;54.38;;
40555;SDS011;26250;45.422;11.100;2024-01-30T02:40:30;70.38;;;55.75;;
40555;SDS011;26250;45.422;11.100;2024-01-30T02:42:58;157.77;;;56.60;;
40555;SDS011;26250;45.422;11.100;2024-01-30T02:45:26;71.55;;;52.90;;
40555;SDS011;26250;45.422;11.100;2024-01-30T02:47:53;76.47;;;53.45;;
40555;SDS011;26250;45.422;11.100;2024-01-30T02:50:20;100.18;;;53.45;;
40555;SDS011;26250;45.422;11.100;2024-01-30T02:52:47;112.53;;;55.15;;
40555;SDS011;26250;45.422;11.100;2024-01-30T02:55:14;127.32;;;58.53;;
40555;SDS011;26250;45.422;11.100;2024-01-30T02:57:44;181.93;;;58.30;;
40555;SDS011;26250;45.422;11.100;2024-01-30T03:00:12;176.82;;;58.20;;
40555;SDS011;26250;45.422;11.100;2024-01-30T03:02:39;154.57;;;55.15;;
40555;SDS011;26250;45.422;11.100;2024-01-30T03:05:07;147.20;;;56.70;;
40555;SDS011;26250;45.422;11.100;2024-01-30T03:07:34;147.35;;;52.92;;
40555;SDS011;26250;45.422;11.100;2024-01-30T03:10:01;195.70;;;55.00;;
40555;SDS011;26250;45.422;11.100;2024-01-30T03:12:30;181.25;;;52.25;;
40555;SDS011;26250;45.422;11.100;2024-01-30T03:14:57;196.05;;;56.13;;
40555;SDS011;26250;45.422;11.100;2024-01-30T03:17:24;142.98;;;51.40;;
40555;SDS011;26250;45.422;11.100;2024-01-30T03:19:51;81.63;;;51.97;;
40555;SDS011;26250;45.422;11.100;2024-01-30T03:22:18;157.43;;;57.75;;
40555;SDS011;26250;45.422;11.100;2024-01-30T03:24:45;191.18;;;53.72;;
40555;SDS011;26250;45.422;11.100;2024-01-30T03:27:12;90.88;;;51.35;;
40555;SDS011;26250;45.422;11.100;2024-01-30T03:29:39;88.00;;;53.92;;
40555;SDS011;26250;45.422;11.100;2024-01-30T03:32:06;121.70;;;53.20;;
40555;SDS011;26250;45.422;11.100;2024-01-30T03:34:33;118.32;;;53.50;;
40555;SDS011;26250;45.422;11.100;2024-01-30T03:37:00;191.82;;;54.72;;
40555;SDS011;26250;45.422;11.100;2024-01-30T03:39:27;117.18;;;51.40;;
40555;SDS011;26250;45.422;11.100;2024-01-30T03:41:54;68.78;;;50.47;;
40555;SDS011;26250;45.422;11.100;2024-01-30T03:44:21;111.70;;;53.33;;
40555;SDS011;26250;45.422;11.100;2024-01-30T03:46:48;82.70;;;49.83;;
40555;SDS011;26250;45.422;11.100;2024-01-30T03:49:15;180.93;;;54.65;;
40555;SDS011;26250;45.422;11.100;2024-01-30T03:51:42;85.55;;;51.03;;
40555;SDS011;26250;45.422;11.100;2024-01-30T03:54:09;190.75;;;56.30;;
40555;SDS011;26250;45.422;11.100;2024-01-30T03:56:36;154.00;;;53.08;;
40555;SDS011;26250;45.422;11.100;2024-01-30T03:59:03;493.42;;;68.10;;
40555;SDS011;26250;45.422;11.100;2024-01-30T04:01:30;302.30;;;54.95;;
40555;SDS011;26250;45.422;11.100;2024-01-30T04:03:57;254.10;;;53.78;;
40555;SDS011;26250;45.422;11.100;2024-01-30T04:06:24;215.48;;;52.60;;
40555;SDS011;26250;45.422;11.100;2024-01-30T04:08:51;194.57;;;47.63;;
40555;SDS011;26250;45.422;11.100;2024-01-30T04:11:18;197.40;;;48.22;;
40555;SDS011;26250;45.422;11.100;2024-01-30T04:13:46;175.20;;;49.53;;
40555;SDS011;26250;45.422;11.100;2024-01-30T04:16:20;148.73;;;43.42;;
40555;SDS011;26250;45.422;11.100;2024-01-30T04:18:51;86.80;;;44.50;;
40555;SDS011;26250;45.422;11.100;2024-01-30T04:21:20;267.08;;;45.47;;
40555;SDS011;26250;45.422;11.100;2024-01-30T04:23:48;140.90;;;44.47;;
40555;SDS011;26250;45.422;11.100;2024-01-30T04:26:15;140.43;;;42.85;;
40555;SDS011;26250;45.422;11.100;2024-01-30T04:28:42;181.30;;;45.60;;
40555;SDS011;26250;45.422;11.100;2024-01-30T04:31:11;207.00;;;45.28;;
40555;SDS011;26250;45.422;11.100;2024-01-30T04:33:38;167.50;;;45.03;;
40555;SDS011;26250;45.422;11.100;2024-01-30T04:36:08;177.32;;;47.45;;
40555;SDS011;26250;45.422;11.100;2024-01-30T04:38:38;179.43;;;46.72;;
40555;SDS011;26250;45.422;11.100;2024-01-30T04:41:05;157.18;;;44.42;;
40555;SDS011;26250;45.422;11.100;2024-01-30T04:43:33;100.60;;;44.30;;
40555;SDS011;26250;45.422;11.100;2024-01-30T04:46:01;175.32;;;48.00;;
40555;SDS011;26250;45.422;11.100;2024-01-30T04:48:28;152.18;;;47.83;;
40555;SDS011;26250;45.422;11.100;2024-01-30T04:50:55;122.22;;;46.45;;
40555;SDS011;26250;45.422;11.100;2024-01-30T04:53:22;148.57;;;44.00;;
40555;SDS011;26250;45.422;11.100;2024-01-30T04:55:49;176.73;;;50.80;;
40555;SDS011;26250;45.422;11.100;2024-01-30T04:58:16;119.53;;;47.10;;
40555;SDS011;26250;45.422;11.100;2024-01-30T05:00:43;130.88;;;47.85;;
40555;SDS011;26250;45.422;11.100;2024-01-30T05:03:12;149.38;;;49.40;;
40555;SDS011;26250;45.422;11.100;2024-01-30T05:05:39;137.23;;;47.85;;
40555;SDS011;26250;45.422;11.100;2024-01-30T05:08:06;231.05;;;51.97;;
40555;SDS011;26250;45.422;11.100;2024-01-30T05:10:33;158.15;;;50.33;;
40555;SDS011;26250;45.422;11.100;2024-01-30T05:13:00;151.13;;;51.13;;
40555;SDS011;26250;45.422;11.100;2024-01-30T05:15:27;138.10;;;50.28;;
40555;SDS011;26250;45.422;11.100;2024-01-30T05:17:54;177.15;;;53.70;;
40555;SDS011;26250;45.422;11.100;2024-01-30T05:20:21;185.95;;;54.47;;
40555;SDS011;26250;45.422;11.100;2024-01-30T05:22:48;177.25;;;52.47;;
40555;SDS011;26250;45.422;11.100;2024-01-30T05:25:15;156.23;;;56.00;;
40555;SDS011;26250;45.422;11.100;2024-01-30T05:27:42;169.98;;;56.67;;
40555;SDS011;26250;45.422;11.100;2024-01-30T05:30:09;260.38;;;60.13;;
40555;SDS011;26250;45.422;11.100;2024-01-30T05:32:37;250.75;;;57.25;;
40555;SDS011;26250;45.422;11.100;2024-01-30T05:35:04;139.80;;;53.72;;
40555;SDS011;26250;45.422;11.100;2024-01-30T05:37:31;161.70;;;53.88;;
40555;SDS011;26250;45.422;11.100;2024-01-30T05:39:58;107.22;;;50.53;;
40555;SDS011;26250;45.422;11.100;2024-01-30T05:42:25;138.65;;;53.28;;
40555;SDS011;26250;45.422;11.100;2024-01-30T05:44:53;194.43;;;52.38;;
40555;SDS011;26250;45.422;11.100;2024-01-30T05:47:20;135.40;;;54.83;;
40555;SDS011;26250;45.422;11.100;2024-01-30T05:49:47;165.88;;;52.42;;
40555;SDS011;26250;45.422;11.100;2024-01-30T05:52:14;218.68;;;54.92;;
40555;SDS011;26250;45.422;11.100;2024-01-30T05:54:41;185.27;;;55.95;;
40555;SDS011;26250;45.422;11.100;2024-01-30T05:57:08;152.60;;;56.13;;
40555;SDS011;26250;45.422;11.100;2024-01-30T05:59:35;136.90;;;53.55;;
40555;SDS011;26250;45.422;11.100;2024-01-30T06:02:07;110.82;;;54.30;;
40555;SDS011;26250;45.422;11.100;2024-01-30T06:04:34;90.97;;;52.13;;
40555;SDS011;26250;45.422;11.100;2024-01-30T06:07:01;62.80;;;48.28;;
40555;SDS011;26250;45.422;11.100;2024-01-30T06:09:28;66.25;;;48.40;;
40555;SDS011;26250;45.422;11.100;2024-01-30T06:11:55;69.25;;;49.22;;
40555;SDS011;26250;45.422;11.100;2024-01-30T06:14:22;64.00;;;48.40;;
40555;SDS011;26250;45.422;11.100;2024-01-30T06:16:50;65.40;;;48.30;;
40555;SDS011;26250;45.422;11.100;2024-01-30T06:19:16;72.00;;;48.47;;
40555;SDS011;26250;45.422;11.100;2024-01-30T06:21:44;54.15;;;46.85;;
40555;SDS011;26250;45.422;11.100;2024-01-30T06:24:11;61.05;;;46.70;;
40555;SDS011;26250;45.422;11.100;2024-01-30T06:26:38;66.35;;;47.88;;
40555;SDS011;26250;45.422;11.100;2024-01-30T06:29:05;60.47;;;44.53;;
40555;SDS011;26250;45.422;11.100;2024-01-30T06:31:32;76.45;;;47.47;;
40555;SDS011;26250;45.422;11.100;2024-01-30T06:33:59;62.92;;;46.03;;
40555;SDS011;26250;45.422;11.100;2024-01-30T06:36:26;69.95;;;45.08;;
40555;SDS011;26250;45.422;11.100;2024-01-30T06:38:53;58.35;;;44.70;;
40555;SDS011;26250;45.422;11.100;2024-01-30T06:41:23;55.72;;;44.95;;
40555;SDS011;26250;45.422;11.100;2024-01-30T06:43:50;51.03;;;42.75;;
40555;SDS011;26250;45.422;11.100;2024-01-30T06:46:17;58.00;;;43.65;;
40555;SDS011;26250;45.422;11.100;2024-01-30T06:48:44;60.00;;;45.92;;
40555;SDS011;26250;45.422;11.100;2024-01-30T06:51:11;48.17;;;42.42;;
40555;SDS011;26250;45.422;11.100;2024-01-30T06:53:42;43.20;;;38.72;;
40555;SDS011;26250;45.422;11.100;2024-01-30T06:56:09;40.60;;;36.55;;
40555;SDS011;26250;45.422;11.100;2024-01-30T06:58:37;43.88;;;39.47;;
40555;SDS011;26250;45.422;11.100;2024-01-30T07:01:04;43.30;;;38.60;;
40555;SDS011;26250;45.422;11.100;2024-01-30T07:03:31;43.85;;;39.38;;
40555;SDS011;26250;45.422;11.100;2024-01-30T07:05:58;45.33;;;38.95;;
40555;SDS011;26250;45.422;11.100;2024-01-30T07:08:25;42.33;;;37.83;;
40555;SDS011;26250;45.422;11.100;2024-01-30T07:10:52;46.33;;;37.70;;
40555;SDS011;26250;45.422;11.100;2024-01-30T07:13:25;43.40;;;38.88;;
40555;SDS011;26250;45.422;11.100;2024-01-30T07:15:54;42.53;;;38.17;;
40555;SDS011;26250;45.422;11.100;2024-01-30T07:18:21;42.58;;;37.72;;
40555;SDS011;26250;45.422;11.100;2024-01-30T07:20:48;40.30;;;36.42;;
40555;SDS011;26250;45.422;11.100;2024-01-30T07:23:16;42.40;;;37.83;;
40555;SDS011;26250;45.422;11.100;2024-01-30T07:25:44;41.10;;;36.70;;
40555;SDS011;26250;45.422;11.100;2024-01-30T07:28:14;44.60;;;39.83;;
40555;SDS011;26250;45.422;11.100;2024-01-30T07:30:43;44.63;;;38.35;;
40555;SDS011;26250;45.422;11.100;2024-01-30T07:33:11;40.67;;;36.55;;
40555;SDS011;26250;45.422;11.100;2024-01-30T07:35:38;41.70;;;37.30;;
40555;SDS011;26250;45.422;11.100;2024-01-30T07:38:05;50.45;;;42.30;;
40555;SDS011;26250;45.422;11.100;2024-01-30T07:40:31;47.50;;;42.30;;
40555;SDS011;26250;45.422;11.100;2024-01-30T07:42:59;53.50;;;43.25;;
40555;SDS011;26250;45.422;11.100;2024-01-30T07:45:27;51.72;;;43.75;;
40555;SDS011;26250;45.422;11.100;2024-01-30T07:47:58;40.85;;;34.30;;
40555;SDS011;26250;45.422;11.100;2024-01-30T07:50:26;46.35;;;38.00;;
40555;SDS011;26250;45.422;11.100;2024-01-30T07:52:55;43.80;;;37.47;;
40555;SDS011;26250;45.422;11.100;2024-01-30T07:55:23;40.85;;;36.53;;
40555;SDS011;26250;45.422;11.100;2024-01-30T07:57:58;47.08;;;39.85;;
40555;SDS011;26250;45.422;11.100;2024-01-30T08:00:26;58.60;;;40.60;;
40555;SDS011;26250;45.422;11.100;2024-01-30T08:02:54;51.70;;;39.83;;
40555;SDS011;26250;45.422;11.100;2024-01-30T08:05:22;57.97;;;42.33;;
40555;SDS011;26250;45.422;11.100;2024-01-30T08:07:50;63.08;;;46.03;;
40555;SDS011;26250;45.422;11.100;2024-01-30T08:10:17;53.03;;;46.67;;
40555;SDS011;26250;45.422;11.100;2024-01-30T08:12:45;50.83;;;44.13;;
40555;SDS011;26250;45.422;11.100;2024-01-30T08:15:12;63.80;;;47.10;;
40555;SDS011;26250;45.422;11.100;2024-01-30T08:17:39;64.05;;;43.47;;
40555;SDS011;26250;45.422;11.100;2024-01-30T08:20:07;49.65;;;44.15;;
40555;SDS011;26250;45.422;11.100;2024-01-30T08:22:38;56.10;;;46.47;;
40555;SDS011;26250;45.422;11.100;2024-01-30T08:25:06;53.28;;;46.65;;
40555;SDS011;26250;45.422;11.100;2024-01-30T08:27:34;51.95;;;44.50;;
40555;SDS011;26250;45.422;11.100;2024-01-30T08:30:02;61.30;;;45.55;;
40555;SDS011;26250;45.422;11.100;2024-01-30T08:32:29;78.47;;;52.17;;
40555;SDS011;26250;45.422;11.100;2024-01-30T08:34:56;84.53;;;53.42;;
40555;SDS011;26250;45.422;11.100;2024-01-30T08:37:24;60.78;;;50.80;;
40555;SDS011;26250;45.422;11.100;2024-01-30T08:39:51;58.58;;;49.55;;
40555;SDS011;26250;45.422;11.100;2024-01-30T08:42:18;72.40;;;51.97;;
40555;SDS011;26250;45.422;11.100;2024-01-30T08:44:49;59.95;;;49.40;;
40555;SDS011;26250;45.422;11.100;2024-01-30T08:47:18;66.70;;;49.38;;
40555;SDS011;26250;45.422;11.100;2024-01-30T08:49:45;61.28;;;50.40;;
40555;SDS011;26250;45.422;11.100;2024-01-30T08:52:12;67.65;;;46.92;;
40555;SDS011;26250;45.422;11.100;2024-01-30T08:54:40;58.58;;;47.30;;
40555;SDS011;26250;45.422;11.100;2024-01-30T08:57:07;57.92;;;48.25;;
40555;SDS011;26250;45.422;11.100;2024-01-30T08:59:34;64.18;;;47.33;;
40555;SDS011;26250;45.422;11.100;2024-01-30T09:02:01;63.63;;;47.83;;
40555;SDS011;26250;45.422;11.100;2024-01-30T09:04:38;58.88;;;48.35;;
40555;SDS011;26250;45.422;11.100;2024-01-30T09:07:06;60.35;;;47.90;;
40555;SDS011;26250;45.422;11.100;2024-01-30T09:09:39;55.58;;;45.38;;
40555;SDS011;26250;45.422;11.100;2024-01-30T09:12:08;52.13;;;44.88;;
40555;SDS011;26250;45.422;11.100;2024-01-30T09:14:39;54.20;;;48.30;;
40555;SDS011;26250;45.422;11.100;2024-01-30T09:17:09;64.20;;;48.35;;
40555;SDS011;26250;45.422;11.100;2024-01-30T09:19:37;71.15;;;50.83;;
40555;SDS011;26250;45.422;11.100;2024-01-30T09:22:04;74.13;;;49.75;;
40555;SDS011;26250;45.422;11.100;2024-01-30T09:24:31;62.85;;;50.72;;
40555;SDS011;26250;45.422;11.100;2024-01-30T09:26:58;54.65;;;48.75;;
40555;SDS011;26250;45.422;11.100;2024-01-30T09:29:25;62.53;;;48.60;;
40555;SDS011;26250;45.422;11.100;2024-01-30T09:31:53;57.42;;;47.05;;
40555;SDS011;26250;45.422;11.100;2024-01-30T09:34:20;74.15;;;50.58;;
40555;SDS011;26250;45.422;11.100;2024-01-30T09:36:48;60.42;;;45.92;;
40555;SDS011;26250;45.422;11.100;2024-01-30T09:39:15;60.88;;;47.67;;
40555;SDS011;26250;45.422;11.100;2024-01-30T09:41:55;66.82;;;48.10;;
40555;SDS011;26250;45.422;11.100;2024-01-30T09:47:13;113.95;;;52.80;;
40555;SDS011;26250;45.422;11.100;2024-01-30T09:49:42;65.53;;;50.88;;
40555;SDS011;26250;45.422;11.100;2024-01-30T09:52:10;86.40;;;51.55;;
40555;SDS011;26250;45.422;11.100;2024-01-30T09:54:38;68.65;;;49.65;;
40555;SDS011;26250;45.422;11.100;2024-01-30T09:57:05;76.10;;;52.03;;
40555;SDS011;26250;45.422;11.100;2024-01-30T09:59:32;84.35;;;54.45;;
40555;SDS011;26250;45.422;11.100;2024-01-30T10:02:00;75.28;;;53.75;;
40555;SDS011;26250;45.422;11.100;2024-01-30T10:04:27;75.25;;;53.08;;
40555;SDS011;26250;45.422;11.100;2024-01-30T10:06:54;80.53;;;54.97;;
40555;SDS011;26250;45.422;11.100;2024-01-30T10:09:21;97.00;;;56.10;;
40555;SDS011;26250;45.422;11.100;2024-01-30T10:11:48;100.53;;;59.53;;
40555;SDS011;26250;45.422;11.100;2024-01-30T10:14:17;68.47;;;54.72;;
40555;SDS011;26250;45.422;11.100;2024-01-30T10:16:45;79.90;;;59.85;;
40555;SDS011;26250;45.422;11.100;2024-01-30T10:19:13;72.53;;;57.90;;
40555;SDS011;26250;45.422;11.100;2024-01-30T10:21:40;69.32;;;58.70;;
40555;SDS011;26250;45.422;11.100;2024-01-30T10:24:07;74.00;;;58.05;;
40555;SDS011;26250;45.422;11.100;2024-01-30T10:26:34;79.20;;;59.80;;
40555;SDS011;26250;45.422;11.100;2024-01-30T10:29:01;73.65;;;61.65;;
40555;SDS011;26250;45.422;11.100;2024-01-30T10:31:28;80.15;;;63.03;;
40555;SDS011;26250;45.422;11.100;2024-01-30T10:33:57;71.45;;;58.97;;
40555;SDS011;26250;45.422;11.100;2024-01-30T10:36:41;75.28;;;62.20;;
40555;SDS011;26250;45.422;11.100;2024-01-30T10:39:13;75.30;;;60.28;;
40555;SDS011;26250;45.422;11.100;2024-01-30T10:41:43;81.40;;;61.75;;
40555;SDS011;26250;45.422;11.100;2024-01-30T10:44:11;71.03;;;59.88;;
40555;SDS011;26250;45.422;11.100;2024-01-30T10:46:39;83.10;;;66.63;;
40555;SDS011;26250;45.422;11.100;2024-01-30T10:49:09;81.07;;;66.22;;
40555;SDS011;26250;45.422;11.100;2024-01-30T10:51:37;80.72;;;65.13;;
40555;SDS011;26250;45.422;11.100;2024-01-30T10:54:05;81.05;;;64.97;;
40555;SDS011;26250;45.422;11.100;2024-01-30T10:56:33;84.40;;;68.43;;
40555;SDS011;26250;45.422;11.100;2024-01-30T10:59:01;90.65;;;70.32;;
40555;SDS011;26250;45.422;11.100;2024-01-30T11:01:30;75.68;;;64.75;;
40555;SDS011;26250;45.422;11.100;2024-01-30T11:03:57;87.85;;;64.65;;
40555;SDS011;26250;45.422;11.100;2024-01-30T11:06:25;75.72;;;65.20;;
40555;SDS011;26250;45.422;11.100;2024-01-30T11:11:30;82.95;;;63.90;;
40555;SDS011;26250;45.422;11.100;2024-01-30T11:14:00;71.55;;;60.17;;
40555;SDS011;26250;45.422;11.100;2024-01-30T11:16:30;67.35;;;58.80;;
40555;SDS011;26250;45.422;11.100;2024-01-30T11:19:00;64.65;;;57.60;;
40555;SDS011;26250;45.422;11.100;2024-01-30T11:21:28;68.03;;;55.30;;
40555;SDS011;26250;45.422;11.100;2024-01-30T11:23:55;65.55;;;53.97;;
40555;SDS011;26250;45.422;11.100;2024-01-30T11:26:30;60.63;;;53.53;;
40555;SDS011;26250;45.422;11.100;2024-01-30T11:28:58;68.43;;;53.65;;
40555;SDS011;26250;45.422;11.100;2024-01-30T11:31:29;67.55;;;52.55;;
40555;SDS011;26250;45.422;11.100;2024-01-30T11:33:56;69.70;;;55.13;;
40555;SDS011;26250;45.422;11.100;2024-01-30T11:36:25;69.95;;;54.30;;
40555;SDS011;26250;45.422;11.100;2024-01-30T11:38:54;69.40;;;55.85;;
40555;SDS011;26250;45.422;11.100;2024-01-30T11:41:21;64.95;;;54.80;;
40555;SDS011;26250;45.422;11.100;2024-01-30T11:43:53;68.18;;;57.55;;
40555;SDS011;26250;45.422;11.100;2024-01-30T11:46:20;67.93;;;55.20;;
40555;SDS011;26250;45.422;11.100;2024-01-30T11:48:47;76.90;;;57.17;;
40555;SDS011;26250;45.422;11.100;2024-01-30T11:51:14;72.32;;;56.88;;
40555;SDS011;26250;45.422;11.100;2024-01-30T11:53:42;76.18;;;58.58;;
40555;SDS011;26250;45.422;11.100;2024-01-30T11:56:09;75.38;;;58.90;;
40555;SDS011;26250;45.422;11.100;2024-01-30T11:58:42;75.95;;;60.05;;
40555;SDS011;26250;45.422;11.100;2024-01-30T12:01:10;78.18;;;57.40;;
40555;SDS011;26250;45.422;11.100;2024-01-30T12:03:37;89.65;;;64.32;;
40555;SDS011;26250;45.422;11.100;2024-01-30T12:06:04;67.80;;;56.33;;
40555;SDS011;26250;45.422;11.100;2024-01-30T12:08:33;68.68;;;56.30;;
40555;SDS011;26250;45.422;11.100;2024-01-30T12:11:00;70.32;;;56.38;;
40555;SDS011;26250;45.422;11.100;2024-01-30T12:13:31;60.65;;;53.20;;
40555;SDS011;26250;45.422;11.100;2024-01-30T12:15:59;64.22;;;51.70;;
40555;SDS011;26250;45.422;11.100;2024-01-30T12:18:28;62.65;;;51.35;;
40555;SDS011;26250;45.422;11.100;2024-01-30T12:20:58;66.80;;;51.85;;
40555;SDS011;26250;45.422;11.100;2024-01-30T12:23:27;64.95;;;52.22;;
40555;SDS011;26250;45.422;11.100;2024-01-30T12:25:54;64.65;;;51.28;;
40555;SDS011;26250;45.422;11.100;2024-01-30T12:28:21;60.63;;;50.25;;
40555;SDS011;26250;45.422;11.100;2024-01-30T12:30:49;61.08;;;50.78;;
40555;SDS011;26250;45.422;11.100;2024-01-30T12:33:17;62.75;;;53.92;;
40555;SDS011;26250;45.422;11.100;2024-01-30T12:35:47;58.63;;;48.80;;
40555;SDS011;26250;45.422;11.100;2024-01-30T12:38:28;65.93;;;51.35;;
40555;SDS011;26250;45.422;11.100;2024-01-30T12:40:55;65.72;;;51.30;;
40555;SDS011;26250;45.422;11.100;2024-01-30T12:43:23;59.60;;;49.05;;
40555;SDS011;26250;45.422;11.100;2024-01-30T12:46:03;77.15;;;53.40;;
40555;SDS011;26250;45.422;11.100;2024-01-30T12:48:32;57.92;;;48.38;;
40555;SDS011;26250;45.422;11.100;2024-01-30T12:50:59;58.55;;;48.20;;
40555;SDS011;26250;45.422;11.100;2024-01-30T12:53:26;64.95;;;47.42;;
40555;SDS011;26250;45.422;11.100;2024-01-30T12:55:53;68.38;;;48.30;;
40555;SDS011;26250;45.422;11.100;2024-01-30T12:58:20;55.35;;;46.50;;
40555;SDS011;26250;45.422;11.100;2024-01-30T13:00:48;59.17;;;46.75;;
40555;SDS011;26250;45.422;11.100;2024-01-30T13:03:15;56.17;;;47.33;;
40555;SDS011;26250;45.422;11.100;2024-01-30T13:05:42;72.50;;;46.17;;
40555;SDS011;26250;45.422;11.100;2024-01-30T13:08:11;60.53;;;45.72;;
40555;SDS011;26250;45.422;11.100;2024-01-30T13:10:38;51.53;;;45.72;;
40555;SDS011;26250;45.422;11.100;2024-01-30T13:13:05;64.25;;;45.88;;
40555;SDS011;26250;45.422;11.100;2024-01-30T13:15:39;56.42;;;44.83;;
40555;SDS011;26250;45.422;11.100;2024-01-30T13:18:07;59.67;;;44.05;;
40555;SDS011;26250;45.422;11.100;2024-01-30T13:20:33;54.25;;;44.40;;
40555;SDS011;26250;45.422;11.100;2024-01-30T13:23:01;49.83;;;41.40;;
40555;SDS011;26250;45.422;11.100;2024-01-30T13:25:28;55.67;;;45.22;;
40555;SDS011;26250;45.422;11.100;2024-01-30T13:27:55;60.47;;;43.78;;
40555;SDS011;26250;45.422;11.100;2024-01-30T13:30:22;59.13;;;42.83;;
40555;SDS011;26250;45.422;11.100;2024-01-30T13:32:49;49.47;;;42.55;;
40555;SDS011;26250;45.422;11.100;2024-01-30T13:35:17;56.33;;;45.15;;
40555;SDS011;26250;45.422;11.100;2024-01-30T13:37:44;49.92;;;42.95;;
40555;SDS011;26250;45.422;11.100;2024-01-30T13:40:14;55.47;;;43.60;;
40555;SDS011;26250;45.422;11.100;2024-01-30T13:42:43;55.10;;;42.15;;
40555;SDS011;26250;45.422;11.100;2024-01-30T13:45:10;55.60;;;44.05;;
40555;SDS011;26250;45.422;11.100;2024-01-30T13:47:37;50.45;;;44.92;;
40555;SDS011;26250;45.422;11.100;2024-01-30T13:50:05;54.20;;;42.33;;
40555;SDS011;26250;45.422;11.100;2024-01-30T13:52:33;51.35;;;42.40;;
40555;SDS011;26250;45.422;11.100;2024-01-30T13:55:10;50.15;;;41.92;;
40555;SDS011;26250;45.422;11.100;2024-01-30T13:57:37;53.80;;;42.85;;
40555;SDS011;26250;45.422;11.100;2024-01-30T14:00:05;46.20;;;41.38;;
40555;SDS011;26250;45.422;11.100;2024-01-30T14:02:38;58.75;;;43.40;;
40555;SDS011;26250;45.422;11.100;2024-01-30T14:05:28;60.35;;;43.47;;
40555;SDS011;26250;45.422;11.100;2024-01-30T14:07:56;63.40;;;43.17;;
40555;SDS011;26250;45.422;11.100;2024-01-30T14:10:24;43.38;;;38.63;;
40555;SDS011;26250;45.422;11.100;2024-01-30T14:12:52;49.63;;;40.00;;
40555;SDS011;26250;45.422;11.100;2024-01-30T14:15:19;45.13;;;38.05;;